createdAt,value
2023-02-04T00:00:21.924Z,83.90
2023-02-04T00:03:09.778Z,84.30
2023-02-04T00:05:37.691Z,84.54
2023-02-04T00:08:05.814Z,84.61
2023-02-04T00:10:34.127Z,84.69
2023-02-04T00:13:02.912Z,84.83
2023-02-04T00:15:31.145Z,84.71
2023-02-04T00:17:59.559Z,84.57
2023-02-04T00:20:27.389Z,84.56
2023-02-04T00:22:55.262Z,84.50
2023-02-04T00:25:23.116Z,84.68
2023-02-04T00:27:51.045Z,84.74
2023-02-04T00:30:19.224Z,84.97
2023-02-04T00:32:47.032Z,84.86
2023-02-04T00:35:14.954Z,84.71
2023-02-04T00:37:42.797Z,84.58
2023-02-04T00:40:11.241Z,84.38
2023-02-04T00:42:40.904Z,84.07
2023-02-04T00:45:09.646Z,83.82
2023-02-04T00:47:37.499Z,83.82
2023-02-04T00:50:06.033Z,83.63
2023-02-04T00:52:33.901Z,83.62
2023-02-04T00:55:01.777Z,83.82
2023-02-04T00:57:29.727Z,83.86
2023-02-04T00:59:57.838Z,83.71
2023-02-04T01:02:25.836Z,83.68
2023-02-04T01:04:53.767Z,83.78
2023-02-04T01:07:21.706Z,83.59
2023-02-04T01:09:49.839Z,83.46
2023-02-04T01:12:17.700Z,83.40
2023-02-04T01:14:45.768Z,83.30
2023-02-04T01:17:13.605Z,83.22
2023-02-04T01:19:41.447Z,83.23
2023-02-04T01:22:09.297Z,83.13
2023-02-04T01:24:37.163Z,83.06
2023-02-04T01:27:23.592Z,83.26
2023-02-04T01:29:51.414Z,83.55
2023-02-04T01:32:19.223Z,83.96
2023-02-04T01:34:47.115Z,84.43
2023-02-04T01:37:15.004Z,84.75
2023-02-04T01:39:42.865Z,85.24
2023-02-04T01:42:11.822Z,85.69
2023-02-04T01:44:40.102Z,85.91
2023-02-04T01:47:08.032Z,86.02
2023-02-04T01:49:35.962Z,86.69
2023-02-04T01:52:04.482Z,86.58
2023-02-04T01:54:32.758Z,86.51
2023-02-04T01:57:00.842Z,86.37
2023-02-04T01:59:28.750Z,86.34
2023-02-04T02:01:56.616Z,86.57
2023-02-04T02:04:33.094Z,86.59
2023-02-04T02:07:06.021Z,86.33
2023-02-04T02:09:34.457Z,86.27
2023-02-04T02:12:03.887Z,85.95
2023-02-04T02:14:31.845Z,85.61
2023-02-04T02:16:59.782Z,85.54
2023-02-04T02:19:33.769Z,85.37
2023-02-04T02:22:06.940Z,85.02
2023-02-04T02:24:36.644Z,85.19
2023-02-04T02:27:08.397Z,84.91
2023-02-04T02:29:38.906Z,84.83
2023-02-04T02:32:08.736Z,84.84
2023-02-04T02:34:37.997Z,84.73
2023-02-04T02:37:09.034Z,84.62
2023-02-04T02:39:39.611Z,84.28
2023-02-04T02:42:07.821Z,84.24
2023-02-04T02:44:35.643Z,84.24
2023-02-04T02:47:03.560Z,84.41
2023-02-04T02:49:33.069Z,84.42
2023-02-04T02:52:01.006Z,84.18
2023-02-04T02:54:31.864Z,83.74
2023-02-04T02:57:02.146Z,83.81
2023-02-04T02:59:30.041Z,83.45
2023-02-04T03:02:01.991Z,83.04
2023-02-04T03:04:35.015Z,82.82
2023-02-04T03:07:03.944Z,82.80
2023-02-04T03:09:33.530Z,82.65
2023-02-04T03:12:02.243Z,82.68
2023-02-04T03:14:30.221Z,82.65
2023-02-04T03:16:59.737Z,82.61
2023-02-04T03:19:28.381Z,82.52
2023-02-04T03:21:57.534Z,82.28
2023-02-04T03:24:25.732Z,82.08
2023-02-04T03:26:53.837Z,82.27
2023-02-04T03:29:21.709Z,82.26
2023-02-04T03:31:49.805Z,82.35
2023-02-04T03:34:17.670Z,82.36
2023-02-04T03:36:45.607Z,82.44
2023-02-04T03:39:13.500Z,82.22
2023-02-04T03:41:41.347Z,81.77
2023-02-04T03:44:09.134Z,81.31
2023-02-04T03:46:37.005Z,81.28
2023-02-04T03:49:04.910Z,80.91
2023-02-04T03:51:32.744Z,81.04
2023-02-04T03:54:00.585Z,81.63
2023-02-04T03:56:28.530Z,81.73
2023-02-04T03:58:56.410Z,81.68
2023-02-04T04:01:24.273Z,81.47
2023-02-04T04:03:52.117Z,81.36
2023-02-04T04:06:19.963Z,81.22
2023-02-04T04:08:47.806Z,81.01
2023-02-04T04:11:15.791Z,80.83
2023-02-04T04:13:43.786Z,80.65
2023-02-04T04:16:11.681Z,80.55
2023-02-04T04:18:39.597Z,80.60
2023-02-04T04:21:07.383Z,80.75
2023-02-04T04:23:35.435Z,80.45
2023-02-04T04:26:03.282Z,80.34
2023-02-04T04:28:31.129Z,80.09
2023-02-04T04:30:59.102Z,80.08
2023-02-04T04:33:27.016Z,79.70
2023-02-04T04:35:54.904Z,79.87
2023-02-04T04:38:22.839Z,79.65
2023-02-04T04:40:50.752Z,79.70
2023-02-04T04:43:18.710Z,80.02
2023-02-04T04:45:46.647Z,80.12
2023-02-04T04:48:14.587Z,80.16
2023-02-04T04:50:42.443Z,79.92
2023-02-04T04:53:11.437Z,80.05
2023-02-04T04:55:39.740Z,79.87
2023-02-04T04:58:08.740Z,79.77
2023-02-04T05:00:36.668Z,79.78
2023-02-04T05:03:04.483Z,80.05
2023-02-04T05:05:32.341Z,80.14
2023-02-04T05:08:00.276Z,80.17
2023-02-04T05:10:28.063Z,80.09
2023-02-04T05:12:55.960Z,80.11
2023-02-04T05:15:23.782Z,79.79
2023-02-04T05:17:51.616Z,79.89
2023-02-04T05:20:19.426Z,79.88
2023-02-04T05:22:47.240Z,79.97
2023-02-04T05:25:16.708Z,79.92
2023-02-04T05:27:45.190Z,79.88
2023-02-04T05:30:13.765Z,79.83
2023-02-04T05:32:41.878Z,79.89
2023-02-04T05:35:09.940Z,80.03
2023-02-04T05:37:37.803Z,80.11
2023-02-04T05:40:06.284Z,80.05
2023-02-04T05:42:34.106Z,80.02
2023-02-04T05:45:01.955Z,80.14
2023-02-04T05:47:29.822Z,80.01
2023-02-04T05:49:57.652Z,79.93
2023-02-04T05:52:25.480Z,79.87
2023-02-04T05:54:53.281Z,79.89
2023-02-04T05:57:21.087Z,79.72
2023-02-04T05:59:48.931Z,79.54
2023-02-04T06:02:16.741Z,79.45
2023-02-04T06:04:44.933Z,79.63
2023-02-04T06:07:12.848Z,79.77
2023-02-04T06:09:40.725Z,79.47
2023-02-04T06:12:11.679Z,79.46
2023-02-04T06:14:40.567Z,79.32
2023-02-04T06:17:08.352Z,79.11
2023-02-04T06:19:36.314Z,79.21
2023-02-04T06:22:04.223Z,79.44
2023-02-04T06:24:32.046Z,79.50
2023-02-04T06:26:59.887Z,79.29
2023-02-04T06:29:27.767Z,79.17
2023-02-04T06:31:55.708Z,79.25
2023-02-04T06:34:23.633Z,79.31
2023-02-04T06:36:51.519Z,79.38
2023-02-04T06:39:21.046Z,79.34
2023-02-04T06:41:48.877Z,79.29
2023-02-04T06:44:16.744Z,79.28
2023-02-04T06:46:44.571Z,79.45
2023-02-04T06:49:12.492Z,79.46
2023-02-04T06:51:40.350Z,79.41
2023-02-04T06:54:08.236Z,79.39
2023-02-04T06:56:36.085Z,79.29
2023-02-04T06:59:04.038Z,79.29
2023-02-04T07:01:31.915Z,79.31
2023-02-04T07:03:59.838Z,79.37
2023-02-04T07:06:27.806Z,79.47
2023-02-04T07:08:55.652Z,79.21
2023-02-04T07:11:23.473Z,79.35
2023-02-04T07:13:51.293Z,79.27
2023-02-04T07:16:19.216Z,79.37
2023-02-04T07:18:47.039Z,79.58
2023-02-04T07:21:14.868Z,79.55
2023-02-04T07:23:42.747Z,79.57
2023-02-04T07:26:10.572Z,79.54
2023-02-04T07:28:38.864Z,79.65
2023-02-04T07:31:07.254Z,79.63
2023-02-04T07:33:35.125Z,79.66
2023-02-04T07:36:03.000Z,79.63
2023-02-04T07:38:31.047Z,79.74
2023-02-04T07:40:58.896Z,79.94
2023-02-04T07:43:26.933Z,80.07
2023-02-04T07:45:54.977Z,80.40
2023-02-04T07:48:22.838Z,80.26
2023-02-04T07:50:50.686Z,79.49
2023-02-04T07:53:18.624Z,79.31
2023-02-04T07:55:46.433Z,79.27
2023-02-04T07:58:14.259Z,79.42
2023-02-04T08:00:42.072Z,79.36
2023-02-04T08:03:10.106Z,79.38
2023-02-04T08:05:38.021Z,79.18
2023-02-04T08:08:05.933Z,79.18
2023-02-04T08:10:34.265Z,79.23
2023-02-04T08:13:02.273Z,79.24
2023-02-04T08:15:30.177Z,79.21
2023-02-04T08:17:58.189Z,79.32
2023-02-04T08:20:26.254Z,79.41
2023-02-04T08:22:54.151Z,79.47
2023-02-04T08:25:22.061Z,79.72
2023-02-04T08:27:49.915Z,79.37
2023-02-04T08:30:18.087Z,79.28
2023-02-04T08:32:45.973Z,79.33
2023-02-04T08:35:13.933Z,79.40
2023-02-04T08:37:41.812Z,79.05
2023-02-04T08:40:10.476Z,79.08
2023-02-04T08:42:38.495Z,79.20
2023-02-04T08:45:06.758Z,79.19
2023-02-04T08:47:34.638Z,79.35
2023-02-04T08:50:02.591Z,79.21
2023-02-04T08:52:30.544Z,78.82
2023-02-04T08:54:58.509Z,78.53
2023-02-04T08:57:26.310Z,78.73
2023-02-04T08:59:54.177Z,78.85
2023-02-04T09:02:21.980Z,79.03
2023-02-04T09:04:49.909Z,78.92
2023-02-04T09:07:17.773Z,78.98
2023-02-04T09:09:45.633Z,79.14
2023-02-04T09:12:13.588Z,79.06
2023-02-04T09:14:41.377Z,79.47
2023-02-04T09:17:09.212Z,79.41
2023-02-04T09:19:37.068Z,78.97
2023-02-04T09:22:04.969Z,78.88
2023-02-04T09:24:32.768Z,79.03
2023-02-04T09:27:00.626Z,78.83
2023-02-04T09:29:28.492Z,79.20
2023-02-04T09:31:56.639Z,79.04
2023-02-04T09:34:24.644Z,78.95
2023-02-04T09:36:52.492Z,78.76
2023-02-04T09:39:20.314Z,79.00
2023-02-04T09:41:48.202Z,78.57
2023-02-04T09:44:19.922Z,78.76
2023-02-04T09:46:50.617Z,78.94
2023-02-04T09:49:18.658Z,78.53
2023-02-04T09:51:47.991Z,78.33
2023-02-04T09:54:18.883Z,78.37
2023-02-04T09:56:47.918Z,78.14
2023-02-04T09:59:21.512Z,78.40
2023-02-04T10:01:59.508Z,78.32
2023-02-04T10:04:28.802Z,78.54
2023-02-04T10:07:00.528Z,78.17
2023-02-04T10:09:28.463Z,78.08
2023-02-04T10:11:56.315Z,77.82
2023-02-04T10:14:24.605Z,77.63
2023-02-04T10:17:01.426Z,78.02
2023-02-04T10:19:30.969Z,77.65
2023-02-04T10:21:59.234Z,77.72
2023-02-04T10:24:30.295Z,77.27
2023-02-04T10:27:09.066Z,77.26
2023-02-04T10:29:37.575Z,77.60
2023-02-04T10:32:05.655Z,77.68
2023-02-04T10:34:35.161Z,77.59
2023-02-04T10:37:14.486Z,77.28
2023-02-04T10:39:43.473Z,77.61
2023-02-04T10:42:24.730Z,77.63
2023-02-04T10:44:53.406Z,77.40
2023-02-04T10:47:24.782Z,77.27
2023-02-04T10:50:04.782Z,77.55
2023-02-04T10:52:39.240Z,77.28
2023-02-04T10:55:13.245Z,77.26
2023-02-04T10:57:43.873Z,76.84
2023-02-04T11:00:17.072Z,76.93
2023-02-04T11:02:49.878Z,77.22
2023-02-04T11:05:20.965Z,76.25
2023-02-04T11:07:50.118Z,76.41
2023-02-04T11:10:24.504Z,77.10
2023-02-04T11:12:55.478Z,76.89
2023-02-04T11:15:48.585Z,76.68
2023-02-04T11:18:21.130Z,76.80
2023-02-04T11:20:50.505Z,76.55
2023-02-04T11:23:27.672Z,76.50
2023-02-04T11:26:22.670Z,76.27
2023-02-04T11:29:16.587Z,76.01
2023-02-04T11:31:57.282Z,75.82
2023-02-04T11:34:29.386Z,75.60
2023-02-04T11:37:04.654Z,75.68
2023-02-04T11:39:43.913Z,75.93
2023-02-04T11:42:20.043Z,75.74
2023-02-04T11:44:55.994Z,74.66
2023-02-04T11:47:25.635Z,74.98
2023-02-04T11:49:59.976Z,74.94
2023-02-04T11:52:27.924Z,74.78
2023-02-04T11:54:59.685Z,74.93
2023-02-04T11:57:27.842Z,74.43
2023-02-04T11:59:55.804Z,74.39
2023-02-04T12:02:26.337Z,74.85
2023-02-04T12:05:09.103Z,74.86
2023-02-04T12:07:37.022Z,74.58
2023-02-04T12:10:34.281Z,74.14
2023-02-04T12:13:13.362Z,73.57
2023-02-04T12:15:41.207Z,73.73
2023-02-04T12:18:12.933Z,73.76
2023-02-04T12:20:40.773Z,72.64
2023-02-04T12:23:08.686Z,71.23
2023-02-04T12:25:36.651Z,71.30
2023-02-04T12:28:04.781Z,70.71
2023-02-04T12:30:32.690Z,71.45
2023-02-04T12:33:00.509Z,72.17
2023-02-04T12:35:28.326Z,72.70
2023-02-04T12:37:56.381Z,72.49
2023-02-04T12:40:24.317Z,72.35
2023-02-04T12:42:52.418Z,72.81
2023-02-04T12:45:20.374Z,73.04
2023-02-04T12:47:48.410Z,73.91
2023-02-04T12:50:24.744Z,74.69
2023-02-04T12:52:54.934Z,74.88
2023-02-04T12:55:24.874Z,74.84
2023-02-04T12:57:52.820Z,75.03
2023-02-04T13:00:21.917Z,74.82
2023-02-04T13:02:50.121Z,74.86
2023-02-04T13:05:18.593Z,74.76
2023-02-04T13:07:46.780Z,73.94
2023-02-04T13:10:14.823Z,73.41
2023-02-04T13:12:42.670Z,73.53
2023-02-04T13:15:11.004Z,74.55
2023-02-04T13:17:38.905Z,75.21
2023-02-04T13:20:07.499Z,75.82
2023-02-04T13:22:35.728Z,76.43
2023-02-04T13:25:04.242Z,76.74
2023-02-04T13:27:32.452Z,76.95
2023-02-04T13:30:00.372Z,77.12
2023-02-04T13:32:28.260Z,77.11
2023-02-04T13:34:56.200Z,77.18
2023-02-04T13:37:24.220Z,76.90
2023-02-04T13:39:52.129Z,76.59
2023-02-04T13:42:19.960Z,76.27
2023-02-04T13:44:47.792Z,75.79
2023-02-04T13:47:15.612Z,75.20
2023-02-04T13:49:43.509Z,74.40
2023-02-04T13:52:11.458Z,73.97
2023-02-04T13:54:39.472Z,73.33
2023-02-04T13:57:07.314Z,73.13
2023-02-04T13:59:35.155Z,72.82
2023-02-04T14:02:03.133Z,73.04
2023-02-04T14:04:31.021Z,73.25
2023-02-04T14:06:58.947Z,73.49
2023-02-04T14:09:26.804Z,73.08
2023-02-04T14:11:54.714Z,73.27
2023-02-04T14:14:22.638Z,73.33
2023-02-04T14:16:50.507Z,73.38
2023-02-04T14:19:18.380Z,73.27
2023-02-04T14:21:46.505Z,73.73
2023-02-04T14:24:14.331Z,73.89
2023-02-04T14:26:42.146Z,74.02
2023-02-04T14:29:11.212Z,73.93
2023-02-04T14:31:39.154Z,74.06
2023-02-04T14:34:07.076Z,74.19
2023-02-04T14:36:34.905Z,74.02
2023-02-04T14:39:02.871Z,74.28
2023-02-04T14:41:31.353Z,74.35
2023-02-04T14:43:59.744Z,74.12
2023-02-04T14:46:28.304Z,74.10
2023-02-04T14:48:56.392Z,74.05
2023-02-04T14:51:24.332Z,74.48
2023-02-04T14:53:52.152Z,74.60
2023-02-04T14:56:20.004Z,74.71
2023-02-04T14:58:47.901Z,74.72
2023-02-04T15:01:15.984Z,74.64
2023-02-04T15:03:43.937Z,74.58
2023-02-04T15:06:11.840Z,74.65
2023-02-04T15:08:39.720Z,74.70
2023-02-04T15:11:07.652Z,74.86
2023-02-04T15:13:35.631Z,74.75
2023-02-04T15:16:05.469Z,74.84
2023-02-04T15:18:33.768Z,74.88
2023-02-04T15:21:01.953Z,75.37
2023-02-04T15:23:30.033Z,75.15
2023-02-04T15:25:58.016Z,75.05
2023-02-04T15:28:27.746Z,75.31
2023-02-04T15:30:55.719Z,75.67
2023-02-04T15:33:23.814Z,75.79
2023-02-04T15:35:51.728Z,75.86
2023-02-04T15:38:19.714Z,76.60
2023-02-04T15:40:47.797Z,77.19
2023-02-04T15:43:15.612Z,77.04
2023-02-04T15:45:43.996Z,76.84
2023-02-04T15:48:11.929Z,76.66
2023-02-04T15:50:39.909Z,76.63
2023-02-04T15:53:07.770Z,76.39
2023-02-04T15:55:35.639Z,76.40
2023-02-04T15:58:03.576Z,76.37
2023-02-04T16:00:31.820Z,76.35
2023-02-04T16:02:59.992Z,76.59
2023-02-04T16:05:28.120Z,76.34
2023-02-04T16:07:55.997Z,76.46
2023-02-04T16:10:23.943Z,76.53
2023-02-04T16:12:52.470Z,76.43
2023-02-04T16:15:20.353Z,76.57
2023-02-04T16:17:48.389Z,76.33
2023-02-04T16:20:16.631Z,76.32
2023-02-04T16:22:44.479Z,76.25
2023-02-04T16:25:12.438Z,76.25
2023-02-04T16:27:40.426Z,76.36
2023-02-04T16:30:09.121Z,76.56
2023-02-04T16:32:37.647Z,76.36
2023-02-04T16:35:06.812Z,76.39
2023-02-04T16:37:35.261Z,76.64
2023-02-04T16:40:04.916Z,76.20
2023-02-04T16:42:32.924Z,76.08
2023-02-04T16:45:01.165Z,76.66
2023-02-04T16:47:29.135Z,76.34
2023-02-04T16:50:00.814Z,76.09
2023-02-04T16:52:28.941Z,75.51
2023-02-04T16:54:57.013Z,75.53
2023-02-04T16:57:25.072Z,74.87
2023-02-04T16:59:52.964Z,76.75
2023-02-04T17:02:20.857Z,75.47
2023-02-04T17:04:48.781Z,73.93
2023-02-04T17:07:16.584Z,73.23
2023-02-04T17:09:44.391Z,73.01
2023-02-04T17:12:12.292Z,72.77
2023-02-04T17:14:41.126Z,72.99
2023-02-04T17:17:09.121Z,72.59
2023-02-04T17:19:37.051Z,72.50
2023-02-04T17:22:05.406Z,72.37
2023-02-04T17:24:33.287Z,72.50
2023-02-04T17:27:03.284Z,72.64
2023-02-04T17:29:31.250Z,72.84
2023-02-04T17:31:59.053Z,72.44
2023-02-04T17:34:26.918Z,72.14
2023-02-04T17:36:54.815Z,72.39
2023-02-04T17:39:22.784Z,72.53
2023-02-04T17:41:50.599Z,72.55
2023-02-04T17:44:20.065Z,72.86
2023-02-04T17:46:48.059Z,72.81
2023-02-04T17:49:16.145Z,72.39
2023-02-04T17:51:44.055Z,72.09
2023-02-04T17:54:12.612Z,72.01
2023-02-04T17:56:40.419Z,72.11
2023-02-04T17:59:11.287Z,71.86
2023-02-04T18:01:41.315Z,71.74
2023-02-04T18:04:12.856Z,71.68
2023-02-04T18:06:41.075Z,71.80
2023-02-04T18:09:15.368Z,71.73
2023-02-04T18:11:44.256Z,71.78
2023-02-04T18:14:20.537Z,71.70
2023-02-04T18:16:48.961Z,71.69
2023-02-04T18:19:21.036Z,71.65
2023-02-04T18:21:49.978Z,71.68
2023-02-04T18:24:32.448Z,71.10
2023-02-04T18:27:04.526Z,70.68
2023-02-04T18:29:35.574Z,71.08
2023-02-04T18:32:15.794Z,71.33
2023-02-04T18:34:46.530Z,71.27
2023-02-04T18:37:25.988Z,71.52
2023-02-04T18:40:08.830Z,71.60
2023-02-04T18:42:44.909Z,71.47
2023-02-04T18:45:20.896Z,71.50
2023-02-04T18:47:49.032Z,71.39
2023-02-04T18:50:33.398Z,71.28
2023-02-04T18:53:19.560Z,71.19
2023-02-04T18:55:56.583Z,71.35
2023-02-04T18:58:35.289Z,71.50
2023-02-04T19:01:12.950Z,70.91
2023-02-04T19:03:52.366Z,71.11
2023-02-04T19:06:37.479Z,70.98
2023-02-04T19:09:17.652Z,70.90
2023-02-04T19:11:48.653Z,70.91
2023-02-04T19:14:34.525Z,71.00
2023-02-04T19:17:14.649Z,71.03
2023-02-04T19:20:02.615Z,70.97
2023-02-04T19:22:49.737Z,71.22
2023-02-04T19:25:33.023Z,71.33
2023-02-04T19:28:03.405Z,71.13
2023-02-04T19:30:31.188Z,71.06
2023-02-04T19:33:10.022Z,71.04
2023-02-04T19:35:46.249Z,70.95
2023-02-04T19:38:43.153Z,70.82
2023-02-04T19:41:27.955Z,70.78
2023-02-04T19:44:08.770Z,70.52
2023-02-04T19:46:36.884Z,70.47
2023-02-04T19:49:23.910Z,70.41
2023-02-04T19:51:54.581Z,70.59
2023-02-04T19:54:25.424Z,70.59
2023-02-04T19:56:54.858Z,70.53
2023-02-04T19:59:25.713Z,70.38
2023-02-04T20:02:16.267Z,70.43
2023-02-04T20:04:49.726Z,70.11
2023-02-04T20:07:21.482Z,69.99
2023-02-04T20:09:59.040Z,70.18
2023-02-04T20:12:29.557Z,70.11
2023-02-04T20:14:58.563Z,70.06
2023-02-04T20:17:39.866Z,69.97
2023-02-04T20:20:20.903Z,70.14
2023-02-04T20:22:54.584Z,70.03
2023-02-04T20:25:28.113Z,70.22
2023-02-04T20:27:58.450Z,70.34
2023-02-04T20:30:29.521Z,70.30
2023-02-04T20:32:59.748Z,70.31
2023-02-04T20:35:33.746Z,70.20
2023-02-04T20:38:11.294Z,70.41
2023-02-04T20:40:39.297Z,70.43
2023-02-04T20:43:15.883Z,70.45
2023-02-04T20:45:57.188Z,70.49
2023-02-04T20:48:37.067Z,70.04
2023-02-04T20:51:15.580Z,70.00
2023-02-04T20:53:55.432Z,70.18
2023-02-04T20:56:34.056Z,69.76
2023-02-04T20:59:14.544Z,69.82
2023-02-04T21:01:44.601Z,70.02
2023-02-04T21:04:20.359Z,70.10
2023-02-04T21:06:53.767Z,70.13
2023-02-04T21:09:27.582Z,70.29
2023-02-04T21:11:56.750Z,70.24
2023-02-04T21:14:26.289Z,70.31
2023-02-04T21:16:54.954Z,70.11
2023-02-04T21:19:24.122Z,70.05
2023-02-04T21:21:52.273Z,70.07
2023-02-04T21:24:20.231Z,69.93
2023-02-04T21:26:48.309Z,69.95
2023-02-04T21:29:16.398Z,69.89
2023-02-04T21:31:46.498Z,69.91
2023-02-04T21:34:15.847Z,70.15
2023-02-04T21:36:43.849Z,69.94
2023-02-04T21:39:11.769Z,70.07
2023-02-04T21:41:39.822Z,70.08
2023-02-04T21:44:07.807Z,69.89
2023-02-04T21:46:35.762Z,70.01
2023-02-04T21:49:04.958Z,70.01
2023-02-04T21:51:32.805Z,69.97
2023-02-04T21:54:03.458Z,69.99
2023-02-04T21:56:31.641Z,70.11
2023-02-04T21:58:59.587Z,70.08
2023-02-04T22:01:27.430Z,70.07
2023-02-04T22:03:55.321Z,70.11
2023-02-04T22:06:23.230Z,70.10
2023-02-04T22:08:51.075Z,70.24
2023-02-04T22:11:18.955Z,70.22
2023-02-04T22:13:46.926Z,70.11
2023-02-04T22:16:14.793Z,70.18
2023-02-04T22:18:42.676Z,70.26
2023-02-04T22:21:10.552Z,70.37
2023-02-04T22:23:39.694Z,70.24
2023-02-04T22:26:07.667Z,70.31
2023-02-04T22:28:35.502Z,70.38
2023-02-04T22:31:03.393Z,70.38
2023-02-04T22:33:31.377Z,70.47
2023-02-04T22:35:59.205Z,70.46
2023-02-04T22:38:27.066Z,70.40
2023-02-04T22:40:54.897Z,70.57
2023-02-04T22:43:22.736Z,70.51
2023-02-04T22:45:50.677Z,70.57
2023-02-04T22:48:18.455Z,70.58
2023-02-04T22:50:46.259Z,70.61
2023-02-04T22:53:14.042Z,70.65
2023-02-04T22:55:41.926Z,70.55
2023-02-04T22:58:09.811Z,70.61
2023-02-04T23:00:37.683Z,70.63
2023-02-04T23:03:05.530Z,70.61
2023-02-04T23:05:33.573Z,70.62
2023-02-04T23:08:01.697Z,70.63
2023-02-04T23:10:29.615Z,70.78
2023-02-04T23:12:57.517Z,70.85
2023-02-04T23:15:25.385Z,70.76
2023-02-04T23:17:53.230Z,70.80
2023-02-04T23:20:21.083Z,70.85
2023-02-04T23:22:48.914Z,70.88
2023-02-04T23:25:16.883Z,70.80
2023-02-04T23:27:44.804Z,70.84
2023-02-04T23:30:14.483Z,70.89
2023-02-04T23:32:42.785Z,70.87
2023-02-04T23:35:10.789Z,70.93
2023-02-04T23:37:38.772Z,70.99
2023-02-04T23:40:07.245Z,70.98
2023-02-04T23:42:35.176Z,70.99
2023-02-04T23:45:03.313Z,70.86
2023-02-04T23:47:31.252Z,70.97
2023-02-04T23:49:59.063Z,71.02
2023-02-04T23:52:26.894Z,71.07
2023-02-04T23:54:55.076Z,71.23
2023-02-04T23:57:23.240Z,71.12
2023-02-04T23:59:51.255Z,71.25
